ANYNPKMJ

Guest
Details From ANYN - Nauru International
To PKMJ - MARSHALL ISLANDS INTL
Flight Number -
Tags generated
Created
Modified
Stats Distance 527 nm / 977 km
Max Altitude 35,000 ft / 10,668 m
Waypoints 5
Social Downloads 22
Likes 0
Share VATSIM

Download

Looking for another format? Having issues loading an existing format? Contact us
Advertisement - Login to hide

Notes

Basic altitude profile: - Ascent Rate: 2500ft/min - Ascent Speed: 250kts - Cruise Altitude: 35000ft - Cruise Speed: 420kts - Descent Rate: 1500ft/min - Descent Speed: 250kts Options: - Use NATs: yes - Use PACOTS: yes - Use low airways: yes - Use high airways: yes

Route

ANYN NI A598 MAJ PKMJ

ID Type Via Altitude Latitude Longitude Leg Dist Tot Dist Heading (true) Name
O ANYN APT - 0 ft / 0 m -0.54751˚ 166.91906˚ - 0 nm - Nauru International
NI VOR - 100 ft / 30 m -0.54333˚ 166.92167˚ 0 nm 0 nm 32° / 32° NAURU VOR-DME
MARTI FIX A598 (AWY-LO) 35,000 ft / 10,668 m 3.50000˚ 169.27500˚ 280 nm 281 nm 30° / 30° -
MAJ NDB A598 (AWY-LO) 2,300 ft / 701 m 7.06883˚ 171.28183˚ 245 nm 526 nm 29° / 29° MAJURO NDB
O PKMJ APT - 0 ft / 0 m 7.06476˚ 171.27202˚ 0 nm 527 nm 247° / 247° MARSHALL ISLANDS INTL

Altitude Profile

Advertisement - Login to hide

Weather


0- 5 10 15 20 25 30 35+ Temperature / ° C

Clouds and Precipitation
Forecast for 2017-12-12 06:00 UTC. Updated a minute ago

Ground ~20,000 ft ~40,000 ft Winds

ANYN

Details ICAO ANYN (INU)
Name Nauru International
Region Nauru
Timezone Pacific/Nauru (UTC+12.0)
Stats Elevation 24 ft / 7 m (AMSL)
Location -0.547511° 166.919055°
Runways 1
Magnetic Variation 8.668° E

METAR

Not found

TAF

TAF ANYN 111602Z 1118/1218 09005KT 9999 SCT018 SCT140 T 26 29 30 32 Q 1006 1008 1007 1005=

Decode

Departure Runways

ID Width Length Bearing (true) Bearing (mag) Surface Threshold Offset Overrun Length
12 148 ft / 45 m 7,061 ft / 2,152 m 130.50° 121.83° Concrete 0 ft / 0 m 0 ft / 0 m
30 148 ft / 45 m 7,061 ft / 2,152 m 310.50° 301.83° Concrete 0 ft / 0 m 0 ft / 0 m

PKMJ

Details ICAO PKMJ (MAJ)
Name MARSHALL ISLANDS INTL
Region Marshall Islands
Timezone Pacific/Majuro (UTC+12.0)
Stats Elevation 6 ft / 2 m (AMSL)
Location 7.064760° 171.272023°
Runways 1
Magnetic Variation 8.428° E

METAR

PKMJ 120254Z 05017KT 15SM FEW015 SCT050 BKN120 OVC300 30/25 A2974

Decode

TAF

TAF PKMJ 112334Z 1200/1224 07011KT P6SM VCSH SCT014 SCT045 BKN120

Decode

Destination Runways

ID Width Length Bearing (true) Bearing (mag) Surface Threshold Offset Overrun Length
07 150 ft / 46 m 7,898 ft / 2,407 m 76.08° 67.65° Asphalt 0 ft / 0 m 200 ft / 61 m
25 150 ft / 46 m 7,898 ft / 2,407 m 256.08° 247.65° Asphalt 0 ft / 0 m 200 ft / 61 m

Popular Alternatives